Comentários

  1. Lucas Gabardo disse:

    No CWBRadar ta como ELLX-KJFK, pq aconteçe isso em alguns voos? Tipo existe um banco de dados com os voos q não esta atualizado?

  2. Terminal Curitiba disse:

    Lucas,
    Pelo que sei, os números de vôo da CLX não são fixos, eles usam o mesmo número em várias rotas. Talvez seja essa a explicação.

  3. Lucas Gabardo disse:

    Lan alternou tbm?

  4. André disse:

    aaaa hj eu vou na cab, ta quase cavok

  5. Lucas Gabardo disse:

    QUASE? SBCT 301600Z 02012KT CAVOK 23/14 Q1021
    TA CAVOKASSO \../

  6. Acir disse:

    Rafael, vc fez estas fotos de onde?

  7. Andreas Fast disse:

    Aproveitem por mim e ta CAVOKaralho!!! ê dia perfeito para fritar um 747!

  8. Acir, fiz essas fotos do Capão da Imbuia, que é meu caminho para vir trabalhar. A do LAN foi no susto, saiu tremida inclusive, e o Cargolux foi logo em seguida, pura sorte.

  9. Acir disse:

    Legal. É que o ângulo ficou parecido com a passagem pelo Bacacheri. Abraço

  10. Carlos Wroblewski disse:

    747 decolado !

  11. Carlos Wroblewski disse:

    Tirei umas fotos,mas ficaram horriveis demais !